createdAt,value
2023-02-08T00:00:28.621Z,29.42
2023-02-08T00:03:30.800Z,25.42
2023-02-08T00:06:32.950Z,29.08
2023-02-08T00:09:35.139Z,26.45
2023-02-08T00:12:38.399Z,25.67
2023-02-08T00:15:46.168Z,25.55
2023-02-08T00:18:48.360Z,22.23
2023-02-08T00:21:50.569Z,21.95
2023-02-08T00:24:52.651Z,26.60
2023-02-08T00:27:54.821Z,21.02
2023-02-08T00:30:57.354Z,25.02
2023-02-08T00:33:59.606Z,23.00
2023-02-08T00:37:01.819Z,21.45
2023-02-08T00:40:06.057Z,23.30
2023-02-08T00:43:08.252Z,24.00
2023-02-08T00:46:10.445Z,20.08
2023-02-08T00:49:12.614Z,23.10
2023-02-08T00:52:14.777Z,22.67
2023-02-08T00:55:17.074Z,22.30
2023-02-08T00:58:19.243Z,24.23
2023-02-08T01:01:21.382Z,22.33
2023-02-08T01:04:23.513Z,24.33
2023-02-08T01:07:25.733Z,22.35
2023-02-08T01:10:27.824Z,21.85
2023-02-08T01:13:30.184Z,21.48
2023-02-08T01:16:34.072Z,24.65
2023-02-08T01:19:36.281Z,22.75
2023-02-08T01:22:38.748Z,24.40
2023-02-08T01:25:41.994Z,21.63
2023-02-08T01:28:44.856Z,26.30
2023-02-08T01:31:47.086Z,26.45
2023-02-08T01:34:49.279Z,23.85
2023-02-08T01:37:51.383Z,23.73
2023-02-08T01:40:54.233Z,27.05
2023-02-08T01:44:01.079Z,22.73
2023-02-08T01:47:03.906Z,23.02
2023-02-08T01:50:06.839Z,23.23
2023-02-08T01:53:09.875Z,24.52
2023-02-08T01:56:22.868Z,22.98
2023-02-08T01:59:33.180Z,22.98
2023-02-08T02:05:49.451Z,19.50
2023-02-08T02:09:05.021Z,24.25
2023-02-08T02:12:08.887Z,20.30
2023-02-08T02:15:11.766Z,22.45
2023-02-08T02:18:28.529Z,24.17
2023-02-08T02:21:33.463Z,22.67
2023-02-08T02:24:57.406Z,23.23
2023-02-08T02:28:12.609Z,24.20
2023-02-08T02:31:52.250Z,23.55
2023-02-08T02:35:15.620Z,19.25
2023-02-08T02:38:51.210Z,18.38
2023-02-08T02:42:36.181Z,22.55
2023-02-08T02:45:57.059Z,20.40
2023-02-08T02:49:18.350Z,20.00
2023-02-08T02:52:33.732Z,20.77
2023-02-08T02:55:43.942Z,20.92
2023-02-08T02:58:46.364Z,17.90
2023-02-08T03:01:48.936Z,20.00
2023-02-08T03:04:54.435Z,19.75
2023-02-08T03:08:23.009Z,20.45
2023-02-08T03:11:32.829Z,17.88
2023-02-08T03:14:39.528Z,19.65
2023-02-08T03:18:30.635Z,19.90
2023-02-08T03:22:06.438Z,19.02
2023-02-08T03:25:14.300Z,16.13
2023-02-08T03:28:37.745Z,16.38
2023-02-08T03:31:54.265Z,16.17
2023-02-08T03:35:10.542Z,16.88
2023-02-08T03:38:27.636Z,18.58
2023-02-08T03:41:34.326Z,15.95
2023-02-08T03:44:45.082Z,15.73
2023-02-08T03:47:51.105Z,15.52
2023-02-08T03:50:56.949Z,14.88
2023-02-08T03:54:02.658Z,15.27
2023-02-08T03:57:10.310Z,17.42
2023-02-08T04:00:16.145Z,17.15
2023-02-08T04:03:24.407Z,16.08
2023-02-08T04:06:26.855Z,14.60
2023-02-08T04:09:29.222Z,14.68
2023-02-08T04:12:31.517Z,16.63
2023-02-08T04:15:33.972Z,17.08
2023-02-08T04:18:36.096Z,13.77
2023-02-08T04:21:38.957Z,14.23
2023-02-08T04:24:41.210Z,14.80
2023-02-08T04:27:43.482Z,14.25
2023-02-08T04:30:45.728Z,13.65
2023-02-08T04:33:47.869Z,14.27
2023-02-08T04:36:50.120Z,13.43
2023-02-08T04:39:52.364Z,14.45
2023-02-08T04:42:54.633Z,15.43
2023-02-08T04:45:56.811Z,14.07
2023-02-08T04:48:59.206Z,13.15
2023-02-08T04:52:01.429Z,15.13
2023-02-08T04:55:03.592Z,14.57
2023-02-08T04:58:05.823Z,14.02
2023-02-08T05:01:10.877Z,11.85
2023-02-08T05:04:13.126Z,15.43
2023-02-08T05:07:15.436Z,15.35
2023-02-08T05:10:18.245Z,13.23
2023-02-08T05:13:20.449Z,14.98
2023-02-08T05:16:22.827Z,13.68
2023-02-08T05:19:25.168Z,13.90
2023-02-08T05:22:27.370Z,13.25
2023-02-08T05:25:29.632Z,14.55
2023-02-08T05:28:31.841Z,13.65
2023-02-08T05:31:34.208Z,14.43
2023-02-08T05:34:37.916Z,10.77
2023-02-08T05:37:40.080Z,14.40
2023-02-08T05:40:42.572Z,14.48
2023-02-08T05:43:46.112Z,13.75
2023-02-08T05:46:48.547Z,12.95
2023-02-08T05:49:50.673Z,14.98
2023-02-08T05:52:52.809Z,14.63
2023-02-08T05:55:54.930Z,15.23
2023-02-08T05:58:57.270Z,15.98
2023-02-08T06:01:59.508Z,13.75
2023-02-08T06:05:01.656Z,13.15
2023-02-08T06:08:04.095Z,14.18
2023-02-08T06:11:06.945Z,14.23
2023-02-08T06:14:09.422Z,13.30
2023-02-08T06:17:11.650Z,12.57
2023-02-08T06:20:14.093Z,19.17
2023-02-08T06:23:16.199Z,13.02
2023-02-08T06:26:18.393Z,13.05
2023-02-08T06:29:20.641Z,13.45
2023-02-08T06:32:23.087Z,16.55
2023-02-08T06:35:25.238Z,13.55
2023-02-08T06:38:27.546Z,14.60
2023-02-08T06:41:29.782Z,16.88
2023-02-08T06:44:32.006Z,16.77
2023-02-08T06:47:34.082Z,15.73
2023-02-08T06:50:38.143Z,16.23
2023-02-08T06:53:40.534Z,15.30
2023-02-08T06:56:43.328Z,14.88
2023-02-08T06:59:46.171Z,12.20
2023-02-08T07:02:48.393Z,13.80
2023-02-08T07:06:04.077Z,15.40
2023-02-08T07:09:07.060Z,13.68
2023-02-08T07:12:10.106Z,13.50
2023-02-08T07:15:13.780Z,17.05
2023-02-08T07:18:15.964Z,20.65
2023-02-08T07:21:18.053Z,19.13
2023-02-08T07:24:20.327Z,18.98
2023-02-08T07:27:24.483Z,17.85
2023-02-08T07:30:27.849Z,16.85
2023-02-08T07:33:30.074Z,17.73
2023-02-08T07:36:32.416Z,14.82
2023-02-08T07:39:34.649Z,16.90
2023-02-08T07:42:36.804Z,16.42
2023-02-08T07:45:50.695Z,16.30
2023-02-08T07:48:53.530Z,16.90
2023-02-08T07:51:55.793Z,16.40
2023-02-08T07:54:58.025Z,15.48
2023-02-08T07:58:00.163Z,15.90
2023-02-08T08:01:12.590Z,17.05
2023-02-08T08:04:23.538Z,13.68
2023-02-08T08:07:25.713Z,16.52
2023-02-08T08:10:27.991Z,13.95
2023-02-08T08:13:30.194Z,15.57
2023-02-08T08:16:32.362Z,14.57
2023-02-08T08:19:34.632Z,14.13
2023-02-08T08:22:36.939Z,12.15
2023-02-08T08:25:39.199Z,13.27
2023-02-08T08:28:42.247Z,14.05
2023-02-08T08:31:44.772Z,24.52
2023-02-08T08:34:46.934Z,15.23
2023-02-08T08:37:49.020Z,17.13
2023-02-08T08:40:51.176Z,14.65
2023-02-08T08:43:53.845Z,15.43
2023-02-08T08:46:59.837Z,16.30
2023-02-08T08:50:02.190Z,13.20
2023-02-08T08:53:04.624Z,14.20
2023-02-08T08:56:07.161Z,15.07
2023-02-08T08:59:09.324Z,14.32
2023-02-08T09:02:15.562Z,15.27
2023-02-08T09:05:17.769Z,15.18
2023-02-08T09:08:20.086Z,14.18
2023-02-08T09:11:22.388Z,14.68
2023-02-08T09:14:24.594Z,16.20
2023-02-08T09:17:26.802Z,14.60
2023-02-08T09:20:28.946Z,14.48
2023-02-08T09:23:31.113Z,15.18
2023-02-08T09:26:34.007Z,16.67
2023-02-08T09:29:36.309Z,14.95
2023-02-08T09:32:39.991Z,15.40
2023-02-08T09:35:42.489Z,14.27
2023-02-08T09:38:45.725Z,15.35
2023-02-08T09:42:11.877Z,16.65
2023-02-08T09:45:20.008Z,15.45
2023-02-08T09:48:36.229Z,16.40
2023-02-08T09:51:43.366Z,16.73
2023-02-08T09:55:00.026Z,15.70
2023-02-08T09:58:08.265Z,16.30
2023-02-08T10:01:31.467Z,16.90
2023-02-08T10:04:41.211Z,14.65
2023-02-08T10:07:43.786Z,15.52
2023-02-08T10:10:56.274Z,16.27
2023-02-08T10:14:17.194Z,15.52
2023-02-08T10:17:51.085Z,14.20
2023-02-08T10:21:21.717Z,16.92
2023-02-08T10:25:00.516Z,14.07
2023-02-08T10:28:08.544Z,17.15
2023-02-08T10:31:30.695Z,15.60
2023-02-08T10:34:41.725Z,16.50
2023-02-08T10:37:46.450Z,14.90
2023-02-08T10:40:52.534Z,17.05
2023-02-08T10:44:04.792Z,16.67
2023-02-08T10:47:32.738Z,18.65
2023-02-08T10:50:43.284Z,16.83
2023-02-08T10:53:46.018Z,18.90
2023-02-08T10:56:57.665Z,17.88
2023-02-08T11:00:06.184Z,16.23
2023-02-08T11:03:27.750Z,16.40
2023-02-08T11:06:29.912Z,16.63
2023-02-08T11:09:32.566Z,16.80
2023-02-08T11:12:35.117Z,14.90
2023-02-08T11:15:47.225Z,19.23
2023-02-08T11:18:50.900Z,18.08
2023-02-08T11:21:53.615Z,17.95
2023-02-08T11:25:00.174Z,16.55
2023-02-08T11:28:02.867Z,14.82
2023-02-08T11:31:20.809Z,17.13
2023-02-08T11:34:38.907Z,18.00
2023-02-08T11:37:51.553Z,17.65
2023-02-08T11:41:00.029Z,16.42
2023-02-08T11:44:07.150Z,17.40
2023-02-08T11:47:13.225Z,16.90
2023-02-08T11:50:36.823Z,15.38
2023-02-08T11:53:48.429Z,16.23
2023-02-08T11:57:02.991Z,17.38
2023-02-08T12:00:21.032Z,15.57
2023-02-08T12:03:29.288Z,15.02
2023-02-08T12:06:46.569Z,15.43
2023-02-08T12:10:16.597Z,16.17
2023-02-08T12:13:26.189Z,17.02
2023-02-08T12:16:36.222Z,15.90
2023-02-08T12:20:09.001Z,17.95
2023-02-08T12:23:35.973Z,14.82
2023-02-08T12:26:43.912Z,16.02
2023-02-08T12:29:56.311Z,15.82
2023-02-08T12:32:58.663Z,17.50
2023-02-08T12:36:35.875Z,15.90
2023-02-08T12:40:16.847Z,18.17
2023-02-08T12:43:46.995Z,17.95
2023-02-08T12:50:53.781Z,14.73
2023-02-08T12:54:01.153Z,15.48
2023-02-08T12:57:05.755Z,19.70
2023-02-08T13:00:26.374Z,16.08
2023-02-08T13:03:56.391Z,16.38
2023-02-08T13:07:11.347Z,13.55
2023-02-08T13:10:28.632Z,16.98
2023-02-08T13:13:36.093Z,19.48
2023-02-08T13:16:52.448Z,15.68
2023-02-08T13:20:03.867Z,16.38
2023-02-08T13:23:25.934Z,16.13
2023-02-08T13:26:34.527Z,16.85
2023-02-08T13:29:38.037Z,15.52
2023-02-08T13:32:44.470Z,17.65
2023-02-08T13:35:53.140Z,15.60
2023-02-08T13:38:58.123Z,15.10
2023-02-08T13:42:01.851Z,19.13
2023-02-08T13:45:06.242Z,17.45
2023-02-08T13:48:11.665Z,15.95
2023-02-08T13:51:33.947Z,17.83
2023-02-08T13:54:37.358Z,18.50
2023-02-08T13:57:54.185Z,17.17
2023-02-08T14:01:01.193Z,16.13
2023-02-08T14:04:10.022Z,17.77
2023-02-08T14:07:12.133Z,15.82
2023-02-08T14:10:40.929Z,16.20
2023-02-08T14:13:48.398Z,15.75
2023-02-08T14:17:09.977Z,14.38
2023-02-08T14:20:40.136Z,15.68
2023-02-08T14:23:42.455Z,16.60
2023-02-08T14:26:45.591Z,16.77
2023-02-08T14:30:01.420Z,16.10
2023-02-08T14:33:03.425Z,17.33
2023-02-08T14:36:37.028Z,18.55
2023-02-08T14:39:39.224Z,16.05
2023-02-08T14:42:53.587Z,19.13
2023-02-08T14:45:56.591Z,18.73
2023-02-08T14:49:00.476Z,19.90
2023-02-08T14:52:20.201Z,19.38
2023-02-08T14:55:27.724Z,19.95
2023-02-08T14:58:34.511Z,17.73
2023-02-08T15:01:50.091Z,17.77
2023-02-08T15:04:52.826Z,17.40
2023-02-08T15:07:59.614Z,18.83
2023-02-08T15:11:01.929Z,16.17
2023-02-08T15:14:06.038Z,19.90
2023-02-08T15:17:21.728Z,17.15
2023-02-08T15:20:29.576Z,17.10
2023-02-08T15:23:32.162Z,19.77
2023-02-08T15:26:35.013Z,17.98
2023-02-08T15:29:44.599Z,17.08
2023-02-08T15:32:47.105Z,21.75
2023-02-08T15:36:21.408Z,17.88
2023-02-08T15:39:29.284Z,18.67
2023-02-08T15:42:34.025Z,19.73
2023-02-08T15:45:36.348Z,18.58
2023-02-08T15:48:41.573Z,19.02
2023-02-08T15:51:48.099Z,20.55
2023-02-08T15:54:51.067Z,17.85
2023-02-08T15:58:06.361Z,16.50
2023-02-08T16:01:15.222Z,17.83
2023-02-08T16:04:17.617Z,18.65
2023-02-08T16:07:43.587Z,18.48
2023-02-08T16:10:49.019Z,19.92
2023-02-08T16:13:53.977Z,19.55
2023-02-08T16:16:58.292Z,20.30
2023-02-08T16:20:00.617Z,17.90
2023-02-08T16:23:21.644Z,19.55
2023-02-08T16:26:35.682Z,19.90
2023-02-08T16:29:39.812Z,20.13
2023-02-08T16:32:42.054Z,22.20
2023-02-08T16:35:44.270Z,21.70
2023-02-08T16:39:16.318Z,25.60
2023-02-08T16:42:33.831Z,22.67
2023-02-08T16:45:35.893Z,19.38
2023-02-08T16:48:38.029Z,23.17
2023-02-08T16:51:43.451Z,22.20
2023-02-08T16:54:45.786Z,17.67
2023-02-08T16:57:51.356Z,20.75
2023-02-08T17:00:53.830Z,23.08
2023-02-08T17:03:57.221Z,26.02
2023-02-08T17:07:00.146Z,22.27
2023-02-08T17:10:02.855Z,20.80
2023-02-08T17:13:19.989Z,20.73
2023-02-08T17:16:26.029Z,23.10
2023-02-08T17:19:28.286Z,24.92
2023-02-08T17:22:30.544Z,22.92
2023-02-08T17:25:34.114Z,22.52
2023-02-08T17:28:38.644Z,25.55
2023-02-08T17:31:41.418Z,22.60
2023-02-08T17:34:43.662Z,25.38
2023-02-08T17:37:50.537Z,22.35
2023-02-08T17:40:52.644Z,26.33
2023-02-08T17:43:56.213Z,22.45
2023-02-08T17:46:58.347Z,25.23
2023-02-08T17:50:00.559Z,21.77
2023-02-08T17:53:04.151Z,19.52
2023-02-08T17:56:09.764Z,19.63
2023-02-08T17:59:12.307Z,17.15
2023-02-08T18:02:14.740Z,15.18
2023-02-08T18:05:19.494Z,16.10
2023-02-08T18:08:21.654Z,14.35
2023-02-08T18:11:24.285Z,14.93
2023-02-08T18:14:26.594Z,13.85
2023-02-08T18:17:28.786Z,15.30
2023-02-08T18:20:30.946Z,16.02
2023-02-08T18:23:33.175Z,14.82
2023-02-08T18:26:35.554Z,16.52
2023-02-08T18:29:37.760Z,16.83
2023-02-08T18:32:40.031Z,19.08
2023-02-08T18:35:48.490Z,18.42
2023-02-08T18:38:52.891Z,17.80
2023-02-08T18:41:55.095Z,18.42
2023-02-08T18:44:57.242Z,15.55
2023-02-08T18:47:59.851Z,15.60
2023-02-08T18:51:05.084Z,16.55
2023-02-08T18:54:07.306Z,13.27
2023-02-08T18:57:12.756Z,15.07
2023-02-08T19:00:15.943Z,16.67
2023-02-08T19:03:20.068Z,17.25
2023-02-08T19:06:25.108Z,14.57
2023-02-08T19:09:27.309Z,12.77
2023-02-08T19:12:29.940Z,14.65
2023-02-08T19:15:32.199Z,14.32
2023-02-08T19:18:34.629Z,15.65
2023-02-08T19:21:37.034Z,14.25
2023-02-08T19:24:39.277Z,15.38
2023-02-08T19:27:41.436Z,15.98
2023-02-08T19:30:43.646Z,13.00
2023-02-08T19:33:48.012Z,16.15
2023-02-08T19:36:52.293Z,14.10
2023-02-08T19:39:54.490Z,11.43
2023-02-08T19:42:56.623Z,13.73
2023-02-08T19:45:59.561Z,12.00
2023-02-08T19:49:02.178Z,13.68
2023-02-08T19:52:04.398Z,12.57
2023-02-08T19:55:06.757Z,11.32
2023-02-08T19:58:10.747Z,10.38
2023-02-08T20:01:19.124Z,13.27
2023-02-08T20:04:22.425Z,11.98
2023-02-08T20:07:25.980Z,10.40
2023-02-08T20:10:28.209Z,9.93
2023-02-08T20:13:30.385Z,11.18
2023-02-08T20:16:33.953Z,9.40
2023-02-08T20:19:37.425Z,11.23
2023-02-08T20:22:39.582Z,10.43
2023-02-08T20:25:41.972Z,10.45
2023-02-08T20:28:48.052Z,10.77
2023-02-08T20:31:55.660Z,8.63
2023-02-08T20:34:59.715Z,9.57
2023-02-08T20:38:02.198Z,10.07
2023-02-08T20:41:10.951Z,8.98
2023-02-08T20:44:14.857Z,9.02
2023-02-08T20:47:21.833Z,8.90
2023-02-08T20:50:24.039Z,8.63
2023-02-08T20:53:26.210Z,7.95
2023-02-08T20:56:31.887Z,9.80
2023-02-08T20:59:35.088Z,10.23
2023-02-08T21:02:37.312Z,8.32
2023-02-08T21:05:39.459Z,8.63
2023-02-08T21:08:42.607Z,9.68
2023-02-08T21:11:45.857Z,8.35
2023-02-08T21:14:48.173Z,8.23
2023-02-08T21:17:50.326Z,8.23
2023-02-08T21:20:52.532Z,7.57
2023-02-08T21:23:56.804Z,7.68
2023-02-08T21:26:59.163Z,8.88
2023-02-08T21:30:01.370Z,9.27
2023-02-08T21:33:03.865Z,9.18
2023-02-08T21:36:10.514Z,8.15
2023-02-08T21:39:12.763Z,8.93
2023-02-08T21:42:14.968Z,7.07
2023-02-08T21:45:17.217Z,8.98
2023-02-08T21:48:19.386Z,8.20
2023-02-08T21:51:41.899Z,10.07
2023-02-08T21:54:45.814Z,8.38
2023-02-08T21:57:48.932Z,10.20
2023-02-08T22:00:51.634Z,9.10
2023-02-08T22:03:53.856Z,9.07
2023-02-08T22:06:56.031Z,9.65
2023-02-08T22:09:58.155Z,7.45
2023-02-08T22:13:00.552Z,9.15
2023-02-08T22:16:07.910Z,8.43
2023-02-08T22:19:10.176Z,9.50
2023-02-08T22:22:12.575Z,7.13
2023-02-08T22:25:15.108Z,7.90
2023-02-08T22:28:17.416Z,8.55
2023-02-08T22:31:20.077Z,9.50
2023-02-08T22:34:22.339Z,11.70
2023-02-08T22:37:24.800Z,8.48
2023-02-08T22:40:27.031Z,8.80
2023-02-08T22:43:29.807Z,8.68
2023-02-08T22:46:32.055Z,10.80
2023-02-08T22:49:35.127Z,9.25
2023-02-08T22:52:37.383Z,10.10
2023-02-08T22:55:39.614Z,8.73
2023-02-08T22:58:41.916Z,8.75
2023-02-08T23:01:44.402Z,8.82
2023-02-08T23:04:46.701Z,8.93
2023-02-08T23:07:48.952Z,8.82
2023-02-08T23:10:59.820Z,10.02
2023-02-08T23:14:01.991Z,8.02
2023-02-08T23:17:04.228Z,8.82
2023-02-08T23:20:07.160Z,9.30
2023-02-08T23:23:09.442Z,9.57
2023-02-08T23:26:14.832Z,10.88
2023-02-08T23:29:17.061Z,9.90
2023-02-08T23:32:19.258Z,9.50
2023-02-08T23:35:21.653Z,10.70
2023-02-08T23:38:24.056Z,9.23
2023-02-08T23:41:26.403Z,10.52
2023-02-08T23:44:28.725Z,9.07
2023-02-08T23:47:31.576Z,9.02
2023-02-08T23:50:33.997Z,8.38
2023-02-08T23:53:37.282Z,10.95
2023-02-08T23:56:40.872Z,8.63
2023-02-08T23:59:43.092Z,9.35
